TimeEDT,TemperatureF,Dew PointF,Humidity,Sea Level PressureIn,VisibilityMPH,Wind Direction,Wind SpeedMPH,Gust SpeedMPH,PrecipitationIn,Events,Conditions,WindDirDegrees,DateUTC
12:54 AM,25.0,7.0,46,30.02,10.0,NW,8.1,-,N/A,,Partly Cloudy,310,2013-03-22 04:54:00
1:54 AM,25.0,7.0,46,30.02,10.0,NW,9.2,-,N/A,,Clear,310,2013-03-22 05:54:00
2:54 AM,24.1,8.1,51,30.02,10.0,NW,8.1,-,N/A,,Clear,320,2013-03-22 06:54:00
3:54 AM,24.1,7.0,48,30.01,10.0,WNW,4.6,-,N/A,,Clear,290,2013-03-22 07:54:00
4:54 AM,24.1,7.0,48,30.01,10.0,WNW,5.8,-,N/A,,Clear,300,2013-03-22 08:54:00
5:54 AM,21.9,7.0,53,30.02,10.0,West,6.9,-,N/A,,Clear,280,2013-03-22 09:54:00
6:54 AM,21.9,8.1,55,30.04,10.0,WNW,6.9,-,N/A,,Clear,290,2013-03-22 10:54:00
7:54 AM,24.1,9.0,53,30.06,10.0,West,5.8,-,N/A,,Clear,270,2013-03-22 11:54:00
8:54 AM,28.0,9.0,45,30.08,10.0,WSW,11.5,-,N/A,,Clear,250,2013-03-22 12:54:00
9:54 AM,30.9,10.0,42,30.08,10.0,WSW,15.0,19.6,N/A,,Clear,250,2013-03-22 13:54:00
10:54 AM,34.0,10.0,37,30.07,10.0,West,11.5,19.6,N/A,,Clear,270,2013-03-22 14:54:00
11:54 AM,37.0,10.9,34,30.06,10.0,WSW,11.5,18.4,N/A,,Clear,240,2013-03-22 15:54:00
12:54 PM,41.0,12.0,31,30.05,10.0,SW,12.7,18.4,N/A,,Clear,220,2013-03-22 16:54:00
1:54 PM,44.1,12.9,28,30.01,10.0,West,12.7,20.7,N/A,,Clear,280,2013-03-22 17:54:00
2:54 PM,46.9,10.9,23,29.97,10.0,NNW,12.7,18.4,N/A,,Clear,340,2013-03-22 18:54:00
3:54 PM,48.9,9.0,20,29.96,10.0,NW,11.5,20.7,N/A,,Clear,320,2013-03-22 19:54:00
4:54 PM,50.0,9.0,19,29.96,10.0,West,18.4,23.0,N/A,,Clear,280,2013-03-22 20:54:00
5:54 PM,50.0,9.0,19,29.96,10.0,NW,9.2,-,N/A,,Clear,310,2013-03-22 21:54:00
6:54 PM,46.9,10.0,22,29.97,10.0,WNW,10.4,-,N/A,,Clear,300,2013-03-22 22:54:00
7:54 PM,43.0,12.0,28,29.99,10.0,WNW,3.5,-,N/A,,Clear,300,2013-03-22 23:54:00
8:54 PM,39.0,12.9,34,30.01,10.0,NW,3.5,-,N/A,,Clear,310,2013-03-23 00:54:00
9:54 PM,41.0,12.9,32,30.01,10.0,Calm,Calm,-,N/A,,Clear,0,2013-03-23 01:54:00
10:54 PM,41.0,12.0,31,30.02,10.0,SW,3.5,-,N/A,,Clear,230,2013-03-23 02:54:00
11:54 PM,37.9,12.0,35,30.04,10.0,Calm,Calm,-,N/A,,Clear,0,2013-03-23 03:54:00